Time,TemperatureF,DewpointF,PressureIn,WindDirection,WindDirectionDegrees,WindSpeedMPH,WindSpeedGustMPH,Humidity,HourlyPrecipIn,Conditions,Clouds,dailyrainin,SoftwareType,DateUTC
2013-04-14 00:07:00,48.0,37.0,29.91,ENE,71,5.0,7.0,67,0.00,,,0.00,weatherlink.com 1.10,2013-04-14 05:07:00,
2013-04-14 00:22:00,46.9,38.0,29.91,East,98,6.0,8.0,72,0.01,,,0.01,weatherlink.com 1.10,2013-04-14 05:22:00,
2013-04-14 00:37:00,46.6,39.0,29.91,ESE,103,2.0,6.0,74,0.01,,,0.01,weatherlink.com 1.10,2013-04-14 05:37:00,
2013-04-14 00:51:00,46.7,39.0,29.91,East,100,5.0,5.0,75,0.01,,,0.01,weatherlink.com 1.10,2013-04-14 05:51:00,
2013-04-14 01:07:00,47.3,39.0,29.90,East,98,6.0,10.0,73,0.01,,,0.01,weatherlink.com 1.10,2013-04-14 06:07:00,
2013-04-14 01:22:00,47.6,40.0,29.89,ESE,104,6.0,9.0,74,0.00,,,0.01,weatherlink.com 1.10,2013-04-14 06:22:00,
2013-04-14 01:37:00,47.5,40.0,29.89,East,96,7.0,9.0,75,0.00,,,0.01,weatherlink.com 1.10,2013-04-14 06:37:00,
2013-04-14 01:52:00,47.9,40.0,29.88,East,100,8.0,11.0,74,0.00,,,0.01,weatherlink.com 1.10,2013-04-14 06:52:00,
2013-04-14 02:07:00,48.0,41.0,29.87,ESE,110,8.0,10.0,76,0.00,,,0.01,weatherlink.com 1.10,2013-04-14 07:07:00,
2013-04-14 02:22:00,47.9,42.0,29.87,East,80,6.0,10.0,79,0.00,,,0.01,weatherlink.com 1.10,2013-04-14 07:22:00,
2013-04-14 02:37:00,47.4,42.0,29.86,ENE,72,8.0,9.0,82,0.01,,,0.02,weatherlink.com 1.10,2013-04-14 07:37:00,
2013-04-14 02:52:00,46.9,43.0,29.86,East,96,5.0,8.0,85,0.01,,,0.02,weatherlink.com 1.10,2013-04-14 07:52:00,
2013-04-14 03:08:00,46.9,43.0,29.85,ESE,111,4.0,8.0,85,0.01,,,0.02,weatherlink.com 1.10,2013-04-14 08:08:00,
2013-04-14 03:22:00,47.4,43.0,29.85,East,93,7.0,7.0,85,0.01,,,0.02,weatherlink.com 1.10,2013-04-14 08:22:00,
2013-04-14 03:37:00,48.1,43.0,29.85,East,95,5.0,12.0,83,0.00,,,0.02,weatherlink.com 1.10,2013-04-14 08:37:00,
2013-04-14 03:52:00,49.1,43.0,29.84,ESE,117,7.0,11.0,79,0.00,,,0.02,weatherlink.com 1.10,2013-04-14 08:52:00,
2013-04-14 04:07:00,49.2,43.0,29.83,ESE,118,3.0,10.0,79,0.00,,,0.02,weatherlink.com 1.10,2013-04-14 09:07:00,
2013-04-14 04:38:00,50.2,43.0,29.82,ESE,113,5.0,9.0,75,0.00,,,0.02,weatherlink.com 1.10,2013-04-14 09:38:00,
2013-04-14 04:53:00,50.7,42.0,29.82,ESE,103,6.0,8.0,73,0.00,,,0.02,weatherlink.com 1.10,2013-04-14 09:53:00,
2013-04-14 05:08:00,50.9,42.0,29.81,ESE,103,5.0,10.0,72,0.00,,,0.02,weatherlink.com 1.10,2013-04-14 10:08:00,
2013-04-14 05:23:00,50.9,42.0,29.81,SE,124,7.0,10.0,72,0.00,,,0.02,weatherlink.com 1.10,2013-04-14 10:23:00,
2013-04-14 05:38:00,50.9,42.0,29.80,ESE,108,4.0,10.0,71,0.00,,,0.02,weatherlink.com 1.10,2013-04-14 10:38:00,
2013-04-14 05:52:00,50.9,42.0,29.80,SE,127,5.0,8.0,72,0.00,,,0.02,weatherlink.com 1.10,2013-04-14 10:52:00,
2013-04-14 06:09:00,50.9,42.0,29.79,ESE,103,7.0,8.0,71,0.00,,,0.02,weatherlink.com 1.10,2013-04-14 11:09:00,
2013-04-14 06:24:00,50.8,42.0,29.78,ESE,102,6.0,9.0,71,0.00,,,0.02,weatherlink.com 1.10,2013-04-14 11:24:00,
2013-04-14 06:38:00,50.6,41.0,29.78,ESE,111,7.0,12.0,71,0.00,,,0.02,weatherlink.com 1.10,2013-04-14 11:38:00,
2013-04-14 06:53:00,50.6,41.0,29.78,East,98,6.0,13.0,71,0.00,,,0.02,weatherlink.com 1.10,2013-04-14 11:53:00,
2013-04-14 07:09:00,50.3,42.0,29.78,ESE,105,2.0,12.0,72,0.00,,,0.02,weatherlink.com 1.10,2013-04-14 12:09:00,
2013-04-14 07:23:00,49.9,42.0,29.78,ESE,103,4.0,10.0,73,0.00,,,0.02,weatherlink.com 1.10,2013-04-14 12:23:00,
2013-04-14 07:39:00,50.3,42.0,29.79,ESE,112,8.0,13.0,73,0.00,,,0.02,weatherlink.com 1.10,2013-04-14 12:39:00,
2013-04-14 07:54:00,50.7,42.0,29.80,ESE,103,10.0,15.0,72,0.00,,,0.02,weatherlink.com 1.10,2013-04-14 12:54:00,
2013-04-14 08:09:00,50.9,42.0,29.80,East,101,7.0,12.0,71,0.01,,,0.03,weatherlink.com 1.10,2013-04-14 13:09:00,
2013-04-14 08:24:00,51.0,43.0,29.80,ESE,105,5.0,12.0,73,0.01,,,0.03,weatherlink.com 1.10,2013-04-14 13:24:00,
2013-04-14 08:39:00,51.2,43.0,29.79,SSE,159,2.0,12.0,73,0.01,,,0.03,weatherlink.com 1.10,2013-04-14 13:39:00,
2013-04-14 08:55:00,51.6,43.0,29.79,East,99,6.0,8.0,72,0.00,,,0.03,weatherlink.com 1.10,2013-04-14 13:55:00,
2013-04-14 09:09:00,52.3,44.0,29.78,ESE,123,2.0,9.0,72,0.00,,,0.03,weatherlink.com 1.10,2013-04-14 14:09:00,
2013-04-14 09:25:00,53.6,44.0,29.77,SE,131,5.0,9.0,71,0.00,,,0.03,weatherlink.com 1.10,2013-04-14 14:25:00,
2013-04-14 09:39:00,55.0,45.0,29.76,SE,129,4.0,12.0,68,0.00,,,0.03,weatherlink.com 1.10,2013-04-14 14:39:00,
2013-04-14 09:55:00,56.7,46.0,29.76,ESE,110,4.0,7.0,68,0.00,,,0.03,weatherlink.com 1.10,2013-04-14 14:55:00,
2013-04-14 10:10:00,58.6,48.0,29.75,East,83,5.0,8.0,68,0.00,,,0.03,weatherlink.com 1.10,2013-04-14 15:10:00,
2013-04-14 10:25:00,61.6,50.0,29.74,SE,135,3.0,9.0,66,0.00,,,0.03,weatherlink.com 1.10,2013-04-14 15:25:00,
2013-04-14 10:40:00,64.2,49.0,29.74,SE,136,7.0,23.0,58,0.00,,,0.03,weatherlink.com 1.10,2013-04-14 15:40:00,
2013-04-14 10:55:00,65.1,49.0,29.73,SE,124,3.0,22.0,57,0.00,,,0.03,weatherlink.com 1.10,2013-04-14 15:55:00,
2013-04-14 11:10:00,66.0,50.0,29.73,SSE,156,13.0,21.0,56,0.00,,,0.03,weatherlink.com 1.10,2013-04-14 16:10:00,
2013-04-14 11:40:00,67.8,50.0,29.71,SSE,155,4.0,10.0,54,0.00,,,0.03,weatherlink.com 1.10,2013-04-14 16:40:00,
2013-04-14 12:11:00,69.2,51.0,29.69,SSW,198,13.0,18.0,53,0.00,,,0.03,weatherlink.com 1.10,2013-04-14 17:11:00,
2013-04-14 12:25:00,69.6,51.0,29.68,SSE,155,6.0,21.0,52,0.00,,,0.03,weatherlink.com 1.10,2013-04-14 17:25:00,
2013-04-14 12:56:00,71.4,50.0,29.66,ESE,120,4.0,22.0,47,0.00,,,0.03,weatherlink.com 1.10,2013-04-14 17:56:00,
2013-04-14 13:26:00,73.3,50.0,29.66,SW,223,6.0,22.0,44,0.00,,,0.03,weatherlink.com 1.10,2013-04-14 18:26:00,
2013-04-14 13:56:00,74.4,51.0,29.64,South,190,7.0,16.0,44,0.00,,,0.03,weatherlink.com 1.10,2013-04-14 18:56:00,
2013-04-14 14:12:00,75.3,51.0,29.62,SE,136,5.0,21.0,42,0.00,,,0.03,weatherlink.com 1.10,2013-04-14 19:12:00,
2013-04-14 14:27:00,75.4,49.0,29.62,SSE,148,6.0,19.0,40,0.00,,,0.03,weatherlink.com 1.10,2013-04-14 19:27:00,
2013-04-14 14:42:00,75.5,49.0,29.61,SSE,147,13.0,21.0,40,0.00,,,0.03,weatherlink.com 1.10,2013-04-14 19:42:00,
2013-04-14 14:57:00,76.4,50.0,29.60,ESE,120,15.0,24.0,39,0.00,,,0.03,weatherlink.com 1.10,2013-04-14 19:57:00,
2013-04-14 15:12:00,76.3,51.0,29.60,SE,139,7.0,20.0,41,0.00,,,0.03,weatherlink.com 1.10,2013-04-14 20:12:00,
2013-04-14 15:28:00,76.5,50.0,29.58,SE,124,8.0,15.0,40,0.00,,,0.03,weatherlink.com 1.10,2013-04-14 20:28:00,
2013-04-14 15:43:00,76.6,52.0,29.57,SE,145,8.0,18.0,42,0.00,,,0.03,weatherlink.com 1.10,2013-04-14 20:43:00,
2013-04-14 15:57:00,75.8,50.0,29.57,SE,143,11.0,16.0,40,0.00,,,0.03,weatherlink.com 1.10,2013-04-14 20:57:00,
2013-04-14 16:12:00,76.2,50.0,29.57,SE,127,7.0,26.0,40,0.00,,,0.03,weatherlink.com 1.10,2013-04-14 21:12:00,
2013-04-14 16:28:00,75.8,50.0,29.57,SSW,198,11.0,18.0,40,0.00,,,0.03,weatherlink.com 1.10,2013-04-14 21:28:00,
2013-04-14 16:42:00,75.5,49.0,29.56,SSE,158,7.0,11.0,40,0.00,,,0.03,weatherlink.com 1.10,2013-04-14 21:42:00,
2013-04-14 16:58:00,74.9,49.0,29.55,SE,134,4.0,16.0,40,0.00,,,0.03,weatherlink.com 1.10,2013-04-14 21:58:00,
2013-04-14 17:12:00,74.5,48.0,29.55,SE,134,6.0,14.0,39,0.00,,,0.03,weatherlink.com 1.10,2013-04-14 22:12:00,
2013-04-14 17:30:00,73.9,49.0,29.55,SSE,156,13.0,13.0,41,0.00,,,0.03,weatherlink.com 1.10,2013-04-14 22:30:00,
2013-04-14 17:42:00,73.6,48.0,29.55,SE,143,11.0,18.0,40,0.00,,,0.03,weatherlink.com 1.10,2013-04-14 22:42:00,
2013-04-14 17:59:00,73.3,48.0,29.54,SE,136,7.0,13.0,41,0.00,,,0.03,weatherlink.com 1.10,2013-04-14 22:59:00,
2013-04-14 18:14:00,73.1,48.0,29.55,ESE,120,9.0,20.0,41,0.00,,,0.03,weatherlink.com 1.10,2013-04-14 23:14:00,
2013-04-14 18:28:00,73.2,49.0,29.55,SSE,167,7.0,12.0,43,0.00,,,0.03,weatherlink.com 1.10,2013-04-14 23:28:00,
2013-04-14 18:44:00,72.8,49.0,29.55,SE,143,13.0,16.0,43,0.00,,,0.03,weatherlink.com 1.10,2013-04-14 23:44:00,
2013-04-14 18:58:00,71.8,50.0,29.55,SE,145,7.0,12.0,46,0.00,,,0.03,weatherlink.com 1.10,2013-04-14 23:58:00,
2013-04-14 19:14:00,71.2,50.0,29.55,SE,143,5.0,15.0,48,0.00,,,0.03,weatherlink.com 1.10,2013-04-15 00:14:00,
2013-04-14 19:28:00,70.6,51.0,29.56,SSE,148,4.0,14.0,50,0.00,,,0.03,weatherlink.com 1.10,2013-04-15 00:28:00,
2013-04-14 19:44:00,69.7,52.0,29.56,SE,136,6.0,14.0,54,0.00,,,0.03,weatherlink.com 1.10,2013-04-15 00:44:00,
2013-04-14 19:59:00,69.3,54.0,29.56,SE,128,6.0,15.0,58,0.00,,,0.03,weatherlink.com 1.10,2013-04-15 00:59:00,
2013-04-14 20:15:00,68.8,55.0,29.56,SE,143,7.0,19.0,61,0.00,,,0.03,weatherlink.com 1.10,2013-04-15 01:15:00,
2013-04-14 20:29:00,68.5,55.0,29.57,SE,143,8.0,22.0,62,0.00,,,0.03,weatherlink.com 1.10,2013-04-15 01:29:00,
2013-04-14 20:44:00,68.2,55.0,29.58,South,172,8.0,23.0,64,0.00,,,0.03,weatherlink.com 1.10,2013-04-15 01:44:00,
2013-04-14 20:59:00,67.9,55.0,29.58,SSE,163,7.0,25.0,64,0.00,,,0.03,weatherlink.com 1.10,2013-04-15 01:59:00,
2013-04-14 21:14:00,67.7,55.0,29.58,SSE,156,16.0,23.0,65,0.00,,,0.03,weatherlink.com 1.10,2013-04-15 02:14:00,
2013-04-14 21:30:00,67.4,56.0,29.59,South,178,13.0,30.0,66,0.00,,,0.03,weatherlink.com 1.10,2013-04-15 02:30:00,
2013-04-14 21:45:00,67.2,55.0,29.60,SE,139,10.0,26.0,66,0.00,,,0.03,weatherlink.com 1.10,2013-04-15 02:45:00,
2013-04-14 21:59:00,67.2,55.0,29.61,SE,127,8.0,27.0,65,0.00,,,0.03,weatherlink.com 1.10,2013-04-15 02:59:00,
2013-04-14 22:15:00,67.0,54.0,29.61,South,180,14.0,33.0,63,0.00,,,0.03,weatherlink.com 1.10,2013-04-15 03:15:00,
2013-04-14 22:30:00,66.4,54.0,29.60,SSE,153,11.0,28.0,64,0.00,,,0.03,weatherlink.com 1.10,2013-04-15 03:30:00,
2013-04-14 22:45:00,66.0,53.0,29.59,SSE,152,11.0,28.0,64,0.00,,,0.03,weatherlink.com 1.10,2013-04-15 03:45:00,
2013-04-14 23:00:00,65.9,53.0,29.61,South,179,14.0,31.0,63,0.00,,,0.03,weatherlink.com 1.10,2013-04-15 04:00:00,
2013-04-14 23:14:00,65.9,52.0,29.62,SSE,165,26.0,31.0,61,0.00,,,0.03,weatherlink.com 1.10,2013-04-15 04:14:00,
2013-04-14 23:30:00,65.7,52.0,29.63,South,174,29.0,35.0,61,0.00,,,0.03,weatherlink.com 1.10,2013-04-15 04:30:00,
2013-04-14 23:45:00,65.4,51.0,29.64,SSE,160,12.0,30.0,61,0.00,,,0.03,weatherlink.com 1.10,2013-04-15 04:45:00,